sensor_id;sensor_type;location;lat;lon;timestamp;pressure;altitude;pressure_sealevel;temperature;humidity
21361;BME280;10839;43.206;23.550;2023-11-19T00:00:10;97198.03;;;6.55;70.39
21361;BME280;10839;43.206;23.550;2023-11-19T00:02:38;97184.84;;;6.13;72.21
21361;BME280;10839;43.206;23.550;2023-11-19T00:05:05;97198.88;;;6.55;71.73
21361;BME280;10839;43.206;23.550;2023-11-19T00:07:35;97202.00;;;6.83;69.71
21361;BME280;10839;43.206;23.550;2023-11-19T00:10:02;97196.19;;;6.31;70.79
21361;BME280;10839;43.206;23.550;2023-11-19T00:12:32;97196.22;;;6.15;72.28
21361;BME280;10839;43.206;23.550;2023-11-19T00:14:58;97195.84;;;6.66;70.92
21361;BME280;10839;43.206;23.550;2023-11-19T00:17:23;97198.53;;;6.58;70.46
21361;BME280;10839;43.206;23.550;2023-11-19T00:19:49;97203.88;;;6.34;71.47
21361;BME280;10839;43.206;23.550;2023-11-19T00:22:17;97202.84;;;6.59;70.61
21361;BME280;10839;43.206;23.550;2023-11-19T00:24:42;97209.22;;;6.66;70.26
21361;BME280;10839;43.206;23.550;2023-11-19T00:27:08;97209.91;;;6.52;70.90
21361;BME280;10839;43.206;23.550;2023-11-19T00:29:34;97206.88;;;6.31;72.21
21361;BME280;10839;43.206;23.550;2023-11-19T00:32:00;97199.63;;;6.88;69.79
21361;BME280;10839;43.206;23.550;2023-11-19T00:34:25;97218.88;;;6.83;69.02
21361;BME280;10839;43.206;23.550;2023-11-19T00:36:51;97217.22;;;6.34;71.22
21361;BME280;10839;43.206;23.550;2023-11-19T00:39:17;97214.56;;;6.58;70.93
21361;BME280;10839;43.206;23.550;2023-11-19T00:41:43;97214.53;;;6.74;69.87
21361;BME280;10839;43.206;23.550;2023-11-19T00:44:09;97198.53;;;6.58;69.72
21361;BME280;10839;43.206;23.550;2023-11-19T00:46:35;97216.72;;;6.30;71.35
21361;BME280;10839;43.206;23.550;2023-11-19T00:49:00;97208.53;;;6.64;69.75
21361;BME280;10839;43.206;23.550;2023-11-19T00:51:26;97223.84;;;7.02;68.16
21361;BME280;10839;43.206;23.550;2023-11-19T00:53:52;97220.06;;;6.40;70.14
21361;BME280;10839;43.206;23.550;2023-11-19T00:56:18;97223.91;;;6.54;70.27
21361;BME280;10839;43.206;23.550;2023-11-19T00:58:45;97227.56;;;6.69;68.79
21361;BME280;10839;43.206;23.550;2023-11-19T01:01:14;97225.28;;;6.50;69.34
21361;BME280;10839;43.206;23.550;2023-11-19T01:03:40;97229.25;;;6.54;70.04
21361;BME280;10839;43.206;23.550;2023-11-19T01:06:06;97217.03;;;6.76;68.62
21361;BME280;10839;43.206;23.550;2023-11-19T01:08:31;97221.22;;;6.78;68.78
21361;BME280;10839;43.206;23.550;2023-11-19T01:10:57;97210.06;;;6.26;70.35
21361;BME280;10839;43.206;23.550;2023-11-19T01:13:23;97223.38;;;6.83;69.02
21361;BME280;10839;43.206;23.550;2023-11-19T01:15:50;97213.19;;;6.86;68.21
21361;BME280;10839;43.206;23.550;2023-11-19T01:18:15;97206.25;;;6.37;69.57
21361;BME280;10839;43.206;23.550;2023-11-19T01:20:42;97216.06;;;6.61;69.19
21361;BME280;10839;43.206;23.550;2023-11-19T01:23:07;97197.69;;;6.74;68.45
21361;BME280;10839;43.206;23.550;2023-11-19T01:25:33;97209.38;;;6.65;68.40
21361;BME280;10839;43.206;23.550;2023-11-19T01:28:01;97210.91;;;6.35;69.71
21361;BME280;10839;43.206;23.550;2023-11-19T01:30:28;97214.22;;;6.61;68.31
21361;BME280;10839;43.206;23.550;2023-11-19T01:32:53;97221.06;;;6.72;67.95
21361;BME280;10839;43.206;23.550;2023-11-19T01:35:19;97211.91;;;6.42;68.92
21361;BME280;10839;43.206;23.550;2023-11-19T01:37:45;97213.53;;;6.67;68.65
21361;BME280;10839;43.206;23.550;2023-11-19T01:40:11;97207.53;;;6.73;67.34
21361;BME280;10839;43.206;23.550;2023-11-19T01:42:38;97204.22;;;6.39;68.05
21361;BME280;10839;43.206;23.550;2023-11-19T01:45:05;97200.91;;;6.37;69.35
21361;BME280;10839;43.206;23.550;2023-11-19T01:47:33;97190.84;;;6.55;68.30
21361;BME280;10839;43.206;23.550;2023-11-19T01:49:59;97195.34;;;6.55;67.41
21361;BME280;10839;43.206;23.550;2023-11-19T01:52:25;97188.19;;;6.07;69.42
21361;BME280;10839;43.206;23.550;2023-11-19T01:54:53;97196.19;;;6.31;69.05
21361;BME280;10839;43.206;23.550;2023-11-19T01:57:21;97203.19;;;6.64;66.98
21361;BME280;10839;43.206;23.550;2023-11-19T01:59:50;97197.06;;;6.15;68.50
21361;BME280;10839;43.206;23.550;2023-11-19T02:02:17;97208.22;;;6.19;69.35
21361;BME280;10839;43.206;23.550;2023-11-19T02:04:49;97192.16;;;6.67;67.57
21361;BME280;10839;43.206;23.550;2023-11-19T02:07:15;97193.53;;;6.55;67.07
21361;BME280;10839;43.206;23.550;2023-11-19T02:09:43;97191.50;;;6.09;68.94
21361;BME280;10839;43.206;23.550;2023-11-19T02:12:10;97197.03;;;6.47;67.99
21361;BME280;10839;43.206;23.550;2023-11-19T02:14:37;97184.13;;;6.75;66.25
21361;BME280;10839;43.206;23.550;2023-11-19T02:17:04;97192.53;;;6.32;67.57
21361;BME280;10839;43.206;23.550;2023-11-19T02:19:31;97185.16;;;6.34;67.49
21361;BME280;10839;43.206;23.550;2023-11-19T02:21:57;97187.47;;;6.69;66.10
21361;BME280;10839;43.206;23.550;2023-11-19T02:24:25;97198.22;;;6.45;66.20
21361;BME280;10839;43.206;23.550;2023-11-19T02:27:04;97197.88;;;6.16;67.90
21361;BME280;10839;43.206;23.550;2023-11-19T02:29:33;97204.56;;;6.52;66.63
21361;BME280;10839;43.206;23.550;2023-11-19T02:32:00;97201.22;;;6.50;66.28
21361;BME280;10839;43.206;23.550;2023-11-19T02:34:29;97204.19;;;5.91;68.00
21361;BME280;10839;43.206;23.550;2023-11-19T02:36:55;97187.84;;;6.34;66.86
21361;BME280;10839;43.206;23.550;2023-11-19T02:39:20;97191.69;;;6.47;66.21
21361;BME280;10839;43.206;23.550;2023-11-19T02:41:47;97191.34;;;6.59;65.39
21361;BME280;10839;43.206;23.550;2023-11-19T02:44:16;97194.50;;;6.62;65.24
21361;BME280;10839;43.206;23.550;2023-11-19T02:46:42;97192.53;;;6.48;65.77
21361;BME280;10839;43.206;23.550;2023-11-19T02:49:08;97182.03;;;6.38;65.25
21361;BME280;10839;43.206;23.550;2023-11-19T02:51:34;97192.53;;;6.32;66.22
21361;BME280;10839;43.206;23.550;2023-11-19T02:54:04;97199.22;;;6.52;65.38
21361;BME280;10839;43.206;23.550;2023-11-19T02:56:30;97184.84;;;6.53;65.21
21361;BME280;10839;43.206;23.550;2023-11-19T02:59:00;97199.53;;;6.49;65.03
21361;BME280;10839;43.206;23.550;2023-11-19T03:01:34;97198.19;;;6.53;64.52
21361;BME280;10839;43.206;23.550;2023-11-19T03:04:01;97200.19;;;6.19;65.80
21361;BME280;10839;43.206;23.550;2023-11-19T03:06:28;97200.25;;;5.53;68.03
21361;BME280;10839;43.206;23.550;2023-11-19T03:08:57;97189.72;;;5.44;69.26
21361;BME280;10839;43.206;23.550;2023-11-19T03:11:23;97210.22;;;6.01;66.87
21361;BME280;10839;43.206;23.550;2023-11-19T03:13:50;97209.53;;;5.91;67.23
21361;BME280;10839;43.206;23.550;2023-11-19T03:16:15;97200.44;;;5.60;68.07
21361;BME280;10839;43.206;23.550;2023-11-19T03:18:42;97194.91;;;5.53;68.62
21361;BME280;10839;43.206;23.550;2023-11-19T03:21:08;97190.88;;;5.99;67.44
21361;BME280;10839;43.206;23.550;2023-11-19T03:23:34;97188.84;;;6.09;66.43
21361;BME280;10839;43.206;23.550;2023-11-19T03:26:00;97184.09;;;5.63;67.68
21361;BME280;10839;43.206;23.550;2023-11-19T03:28:29;97190.72;;;5.51;68.49
21361;BME280;10839;43.206;23.550;2023-11-19T03:30:55;97187.84;;;5.94;66.93
21361;BME280;10839;43.206;23.550;2023-11-19T03:33:20;97203.19;;;5.92;66.81
21361;BME280;10839;43.206;23.550;2023-11-19T03:35:46;97189.06;;;5.50;67.80
21361;BME280;10839;43.206;23.550;2023-11-19T03:38:12;97201.81;;;5.72;67.53
21361;BME280;10839;43.206;23.550;2023-11-19T03:40:40;97203.03;;;6.09;65.96
21361;BME280;10839;43.206;23.550;2023-11-19T03:43:06;97202.59;;;5.56;67.67
21361;BME280;10839;43.206;23.550;2023-11-19T03:45:32;97208.38;;;5.36;68.75
21361;BME280;10839;43.206;23.550;2023-11-19T03:47:57;97197.00;;;5.83;67.17
21361;BME280;10839;43.206;23.550;2023-11-19T03:50:23;97207.19;;;5.96;66.84
21361;BME280;10839;43.206;23.550;2023-11-19T03:52:49;97217.72;;;5.48;67.93
21361;BME280;10839;43.206;23.550;2023-11-19T03:55:15;97206.72;;;5.51;68.80
21361;BME280;10839;43.206;23.550;2023-11-19T03:57:41;97202.19;;;6.01;66.69
21361;BME280;10839;43.206;23.550;2023-11-19T04:00:07;97203.09;;;5.68;67.17
21361;BME280;10839;43.206;23.550;2023-11-19T04:02:40;97191.81;;;5.74;67.16
21361;BME280;10839;43.206;23.550;2023-11-19T04:05:07;97191.50;;;6.09;65.94
21361;BME280;10839;43.206;23.550;2023-11-19T04:07:33;97193.88;;;6.20;64.91
21361;BME280;10839;43.206;23.550;2023-11-19T04:09:59;97203.88;;;6.02;65.15
21361;BME280;10839;43.206;23.550;2023-11-19T04:12:25;97204.78;;;5.69;66.34
21361;BME280;10839;43.206;23.550;2023-11-19T04:14:51;97208.22;;;6.11;65.05
21361;BME280;10839;43.206;23.550;2023-11-19T04:17:18;97204.56;;;6.20;64.21
21361;BME280;10839;43.206;23.550;2023-11-19T04:19:44;97208.44;;;5.68;65.71
21361;BME280;10839;43.206;23.550;2023-11-19T04:22:10;97212.19;;;5.83;66.10
21361;BME280;10839;43.206;23.550;2023-11-19T04:24:36;97210.53;;;6.14;64.73
21361;BME280;10839;43.206;23.550;2023-11-19T04:27:04;97203.72;;;5.95;65.12
21361;BME280;10839;43.206;23.550;2023-11-19T04:29:32;97212.56;;;5.54;66.43
21361;BME280;10839;43.206;23.550;2023-11-19T04:31:58;97216.56;;;6.08;64.71
21361;BME280;10839;43.206;23.550;2023-11-19T04:34:24;97193.88;;;6.20;63.81
21361;BME280;10839;43.206;23.550;2023-11-19T04:36:51;97208.63;;;5.74;65.15
21361;BME280;10839;43.206;23.550;2023-11-19T04:39:17;97209.06;;;6.03;64.52
21361;BME280;10839;43.206;23.550;2023-11-19T04:41:51;97199.88;;;6.14;63.41
21361;BME280;10839;43.206;23.550;2023-11-19T04:44:20;97210.88;;;5.95;63.90
21361;BME280;10839;43.206;23.550;2023-11-19T04:46:46;97199.94;;;5.64;65.32
21361;BME280;10839;43.206;23.550;2023-11-19T04:49:13;97207.88;;;6.06;63.91
21361;BME280;10839;43.206;23.550;2023-11-19T04:51:44;97206.72;;;6.08;63.18
21361;BME280;10839;43.206;23.550;2023-11-19T04:54:12;97205.09;;;5.66;64.47
21361;BME280;10839;43.206;23.550;2023-11-19T04:56:38;97212.88;;;5.93;64.24
21361;BME280;10839;43.206;23.550;2023-11-19T04:59:06;97223.59;;;6.25;63.46
21361;BME280;10839;43.206;23.550;2023-11-19T05:01:32;97221.22;;;5.90;64.13
21361;BME280;10839;43.206;23.550;2023-11-19T05:03:58;97226.50;;;5.82;65.07
21361;BME280;10839;43.206;23.550;2023-11-19T05:06:28;97232.28;;;6.27;63.47
21361;BME280;10839;43.206;23.550;2023-11-19T05:08:55;97217.91;;;6.12;63.36
21361;BME280;10839;43.206;23.550;2023-11-19T05:11:22;97207.28;;;5.62;64.88
21361;BME280;10839;43.206;23.550;2023-11-19T05:13:47;97213.59;;;6.35;63.31
21361;BME280;10839;43.206;23.550;2023-11-19T05:16:13;97208.88;;;6.29;63.07
21361;BME280;10839;43.206;23.550;2023-11-19T05:18:40;97201.50;;;5.83;64.37
21361;BME280;10839;43.206;23.550;2023-11-19T05:21:06;97210.53;;;6.14;64.01
21361;BME280;10839;43.206;23.550;2023-11-19T05:23:35;97217.91;;;6.28;63.45
21361;BME280;10839;43.206;23.550;2023-11-19T05:26:02;97230.75;;;6.16;62.96
21361;BME280;10839;43.206;23.550;2023-11-19T05:28:27;97215.72;;;6.07;64.24
21361;BME280;10839;43.206;23.550;2023-11-19T05:30:53;97220.25;;;6.39;63.68
21361;BME280;10839;43.206;23.550;2023-11-19T05:33:19;97216.41;;;6.41;63.32
21361;BME280;10839;43.206;23.550;2023-11-19T05:35:45;97227.22;;;5.84;64.83
21361;BME280;10839;43.206;23.550;2023-11-19T05:38:10;97238.94;;;6.15;64.26
21361;BME280;10839;43.206;23.550;2023-11-19T05:40:36;97229.75;;;6.58;63.44
21361;BME280;10839;43.206;23.550;2023-11-19T05:43:04;97225.25;;;6.26;63.73
21361;BME280;10839;43.206;23.550;2023-11-19T05:45:30;97231.28;;;6.20;63.53
21361;BME280;10839;43.206;23.550;2023-11-19T05:47:57;97233.97;;;6.52;62.60
21361;BME280;10839;43.206;23.550;2023-11-19T05:50:23;97242.97;;;6.43;62.72
21361;BME280;10839;43.206;23.550;2023-11-19T05:52:49;97258.00;;;6.36;63.49
21361;BME280;10839;43.206;23.550;2023-11-19T05:55:16;97265.34;;;8.14;59.96
21361;BME280;10839;43.206;23.550;2023-11-19T05:57:42;97267.41;;;9.32;55.32
21361;BME280;10839;43.206;23.550;2023-11-19T06:00:09;97260.28;;;8.50;56.86
21361;BME280;10839;43.206;23.550;2023-11-19T06:02:39;97252.88;;;9.26;54.98
21361;BME280;10839;43.206;23.550;2023-11-19T06:05:05;97262.34;;;11.28;50.19
21361;BME280;10839;43.206;23.550;2023-11-19T06:07:33;97237.06;;;12.70;46.42
21361;BME280;10839;43.206;23.550;2023-11-19T06:09:58;97237.78;;;12.19;46.52
21361;BME280;10839;43.206;23.550;2023-11-19T06:12:24;97226.91;;;14.08;43.73
21361;BME280;10839;43.206;23.550;2023-11-19T06:14:50;97232.22;;;15.21;41.28
21361;BME280;10839;43.206;23.550;2023-11-19T06:17:16;97225.19;;;15.63;39.57
21361;BME280;10839;43.206;23.550;2023-11-19T06:19:41;97222.97;;;15.10;39.62
21361;BME280;10839;43.206;23.550;2023-11-19T06:22:07;97235.13;;;16.23;38.39
21361;BME280;10839;43.206;23.550;2023-11-19T06:24:33;97236.41;;;16.20;38.37
21361;BME280;10839;43.206;23.550;2023-11-19T06:26:59;97229.91;;;17.22;36.67
21361;BME280;10839;43.206;23.550;2023-11-19T06:29:24;97230.13;;;17.61;35.94
21361;BME280;10839;43.206;23.550;2023-11-19T06:31:50;97246.59;;;17.25;35.94
21361;BME280;10839;43.206;23.550;2023-11-19T06:34:16;97242.59;;;18.88;34.11
21361;BME280;10839;43.206;23.550;2023-11-19T06:36:42;97245.56;;;16.85;35.70
21361;BME280;10839;43.206;23.550;2023-11-19T06:39:09;97257.66;;;16.89;36.01
21361;BME280;10839;43.206;23.550;2023-11-19T06:41:36;97255.38;;;18.20;34.07
21361;BME280;10839;43.206;23.550;2023-11-19T06:44:05;97257.09;;;17.51;34.56
21361;BME280;10839;43.206;23.550;2023-11-19T06:46:31;97262.34;;;18.27;33.35
21361;BME280;10839;43.206;23.550;2023-11-19T06:48:57;97251.94;;;18.64;32.77
21361;BME280;10839;43.206;23.550;2023-11-19T06:51:23;97239.13;;;18.92;32.71
21361;BME280;10839;43.206;23.550;2023-11-19T06:53:50;97265.50;;;19.32;32.17
21361;BME280;10839;43.206;23.550;2023-11-19T06:56:23;97265.78;;;20.01;31.40
21361;BME280;10839;43.206;23.550;2023-11-19T06:58:49;97273.75;;;19.86;31.48
21361;BME280;10839;43.206;23.550;2023-11-19T07:01:17;97271.34;;;19.90;31.04
21361;BME280;10839;43.206;23.550;2023-11-19T07:03:47;97279.16;;;20.36;30.65
21361;BME280;10839;43.206;23.550;2023-11-19T07:06:13;97284.53;;;20.96;30.12
21361;BME280;10839;43.206;23.550;2023-11-19T07:08:41;97278.03;;;19.16;31.93
21361;BME280;10839;43.206;23.550;2023-11-19T07:11:10;97271.28;;;19.35;31.59
21361;BME280;10839;43.206;23.550;2023-11-19T07:13:37;97272.22;;;17.70;33.62
21361;BME280;10839;43.206;23.550;2023-11-19T07:16:03;97278.75;;;17.17;33.94
21361;BME280;10839;43.206;23.550;2023-11-19T07:18:29;97286.59;;;16.95;34.47
21361;BME280;10839;43.206;23.550;2023-11-19T07:20:55;97292.31;;;16.10;35.23
21361;BME280;10839;43.206;23.550;2023-11-19T07:23:20;97298.91;;;15.28;36.96
21361;BME280;10839;43.206;23.550;2023-11-19T07:25:47;97300.03;;;14.52;38.27
21361;BME280;10839;43.206;23.550;2023-11-19T07:28:13;97290.13;;;14.33;38.90
21361;BME280;10839;43.206;23.550;2023-11-19T07:30:40;97283.72;;;15.21;37.92
21361;BME280;10839;43.206;23.550;2023-11-19T07:33:05;97279.94;;;17.09;35.60
21361;BME280;10839;43.206;23.550;2023-11-19T07:35:32;97286.69;;;17.71;34.49
21361;BME280;10839;43.206;23.550;2023-11-19T07:37:58;97291.66;;;17.21;35.20
21361;BME280;10839;43.206;23.550;2023-11-19T07:40:24;97276.50;;;18.01;34.37
21361;BME280;10839;43.206;23.550;2023-11-19T07:42:50;97286.03;;;16.93;35.33
21361;BME280;10839;43.206;23.550;2023-11-19T07:45:16;97280.63;;;17.80;34.09
21361;BME280;10839;43.206;23.550;2023-11-19T07:47:43;97271.59;;;18.26;33.37
21361;BME280;10839;43.206;23.550;2023-11-19T07:50:12;97277.84;;;17.34;34.86
21361;BME280;10839;43.206;23.550;2023-11-19T07:52:42;97278.56;;;17.41;34.13
21361;BME280;10839;43.206;23.550;2023-11-19T07:55:08;97288.47;;;16.83;34.64
21361;BME280;10839;43.206;23.550;2023-11-19T07:57:34;97278.19;;;16.85;34.74
21361;BME280;10839;43.206;23.550;2023-11-19T08:00:00;97286.78;;;15.06;36.50
21361;BME280;10839;43.206;23.550;2023-11-19T08:02:27;97297.84;;;14.74;37.30
21361;BME280;10839;43.206;23.550;2023-11-19T08:04:53;97296.81;;;14.11;38.19
21361;BME280;10839;43.206;23.550;2023-11-19T08:07:21;97281.78;;;13.51;39.19
21361;BME280;10839;43.206;23.550;2023-11-19T08:09:48;97293.16;;;12.81;41.00
21361;BME280;10839;43.206;23.550;2023-11-19T08:12:14;97295.72;;;13.42;40.28
21361;BME280;10839;43.206;23.550;2023-11-19T08:14:41;97295.50;;;13.50;40.44
21361;BME280;10839;43.206;23.550;2023-11-19T08:17:07;97290.31;;;13.55;40.14
21361;BME280;10839;43.206;23.550;2023-11-19T08:19:32;97298.16;;;13.89;39.61
21361;BME280;10839;43.206;23.550;2023-11-19T08:21:58;97303.28;;;15.29;37.66
21361;BME280;10839;43.206;23.550;2023-11-19T08:24:24;97297.06;;;15.54;36.72
21361;BME280;10839;43.206;23.550;2023-11-19T08:26:50;97311.22;;;15.56;37.14
21361;BME280;10839;43.206;23.550;2023-11-19T08:29:15;97318.31;;;15.25;37.28
21361;BME280;10839;43.206;23.550;2023-11-19T08:31:42;97315.00;;;15.23;36.63
21361;BME280;10839;43.206;23.550;2023-11-19T08:34:07;97316.94;;;14.85;37.78
21361;BME280;10839;43.206;23.550;2023-11-19T08:36:34;97324.81;;;14.93;37.79
21361;BME280;10839;43.206;23.550;2023-11-19T08:39:00;97309.13;;;14.64;38.36
21361;BME280;10839;43.206;23.550;2023-11-19T08:41:26;97301.66;;;14.60;38.79
21361;BME280;10839;43.206;23.550;2023-11-19T08:43:52;97306.72;;;14.43;38.51
21361;BME280;10839;43.206;23.550;2023-11-19T08:46:18;97307.56;;;15.12;37.78
21361;BME280;10839;43.206;23.550;2023-11-19T08:48:44;97306.84;;;15.55;37.17
21361;BME280;10839;43.206;23.550;2023-11-19T08:51:12;97300.53;;;15.61;36.66
21361;BME280;10839;43.206;23.550;2023-11-19T08:53:38;97292.00;;;15.82;36.63
21361;BME280;10839;43.206;23.550;2023-11-19T08:56:04;97292.47;;;16.15;36.14
21361;BME280;10839;43.206;23.550;2023-11-19T08:58:30;97285.19;;;16.63;35.89
21361;BME280;10839;43.206;23.550;2023-11-19T09:00:56;97289.75;;;15.97;36.38
21361;BME280;10839;43.206;23.550;2023-11-19T09:03:23;97292.22;;;15.56;36.94
21361;BME280;10839;43.206;23.550;2023-11-19T09:05:51;97280.53;;;16.34;35.81
21361;BME280;10839;43.206;23.550;2023-11-19T09:08:17;97290.06;;;16.07;36.07
21361;BME280;10839;43.206;23.550;2023-11-19T09:10:43;97293.31;;;15.73;36.25
21361;BME280;10839;43.206;23.550;2023-11-19T09:13:08;97293.56;;;15.89;36.21
21361;BME280;10839;43.206;23.550;2023-11-19T09:15:34;97293.28;;;16.15;35.50
21361;BME280;10839;43.206;23.550;2023-11-19T09:18:00;97308.09;;;15.77;36.06
21361;BME280;10839;43.206;23.550;2023-11-19T09:20:26;97302.38;;;15.35;36.67
21361;BME280;10839;43.206;23.550;2023-11-19T09:22:51;97296.91;;;15.49;36.64
21361;BME280;10839;43.206;23.550;2023-11-19T09:25:17;97300.66;;;15.48;36.87
21361;BME280;10839;43.206;23.550;2023-11-19T09:27:44;97301.03;;;14.95;37.58
21361;BME280;10839;43.206;23.550;2023-11-19T09:30:10;97283.53;;;14.91;37.83
21361;BME280;10839;43.206;23.550;2023-11-19T09:32:36;97269.94;;;15.22;37.34
21361;BME280;10839;43.206;23.550;2023-11-19T09:35:03;97265.47;;;14.85;37.25
21361;BME280;10839;43.206;23.550;2023-11-19T09:37:29;97269.63;;;15.12;36.78
21361;BME280;10839;43.206;23.550;2023-11-19T09:39:55;97260.72;;;14.74;37.64
21361;BME280;10839;43.206;23.550;2023-11-19T09:42:24;97260.13;;;15.03;37.45
21361;BME280;10839;43.206;23.550;2023-11-19T09:44:50;97249.22;;;15.59;37.08
21361;BME280;10839;43.206;23.550;2023-11-19T09:47:16;97249.22;;;15.77;36.23
21361;BME280;10839;43.206;23.550;2023-11-19T09:49:42;97241.47;;;16.17;35.47
21361;BME280;10839;43.206;23.550;2023-11-19T09:52:09;97244.31;;;15.50;36.64
21361;BME280;10839;43.206;23.550;2023-11-19T09:54:35;97232.59;;;15.92;36.38
21361;BME280;10839;43.206;23.550;2023-11-19T09:57:02;97207.06;;;16.29;35.50
21361;BME280;10839;43.206;23.550;2023-11-19T09:59:29;97217.59;;;16.55;35.64
21361;BME280;10839;43.206;23.550;2023-11-19T10:01:56;97208.75;;;17.12;34.76
21361;BME280;10839;43.206;23.550;2023-11-19T10:04:23;97216.25;;;17.40;34.22
21361;BME280;10839;43.206;23.550;2023-11-19T10:06:52;97216.84;;;17.53;34.06
21361;BME280;10839;43.206;23.550;2023-11-19T10:09:18;97218.69;;;18.11;33.29
21361;BME280;10839;43.206;23.550;2023-11-19T10:11:44;97225.38;;;17.92;33.92
21361;BME280;10839;43.206;23.550;2023-11-19T10:14:10;97202.75;;;18.31;33.19
21361;BME280;10839;43.206;23.550;2023-11-19T10:16:36;97212.22;;;17.77;33.76
21361;BME280;10839;43.206;23.550;2023-11-19T10:19:03;97202.59;;;17.98;33.26
21361;BME280;10839;43.206;23.550;2023-11-19T10:21:32;97205.16;;;18.16;33.26
21361;BME280;10839;43.206;23.550;2023-11-19T10:23:59;97206.19;;;17.87;33.35
21361;BME280;10839;43.206;23.550;2023-11-19T10:26:27;97203.44;;;18.38;32.73
21361;BME280;10839;43.206;23.550;2023-11-19T10:28:53;97199.88;;;18.49;32.21
21361;BME280;10839;43.206;23.550;2023-11-19T10:31:20;97185.72;;;18.24;32.46
21361;BME280;10839;43.206;23.550;2023-11-19T10:33:55;97195.16;;;17.93;32.92
21361;BME280;10839;43.206;23.550;2023-11-19T10:36:21;97197.66;;;17.95;32.73
21361;BME280;10839;43.206;23.550;2023-11-19T10:38:54;97192.00;;;18.24;32.53
21361;BME280;10839;43.206;23.550;2023-11-19T10:41:30;97193.09;;;18.12;32.86
21361;BME280;10839;43.206;23.550;2023-11-19T10:43:57;97199.72;;;18.16;33.12
21361;BME280;10839;43.206;23.550;2023-11-19T10:46:22;97194.59;;;18.59;32.51
21361;BME280;10839;43.206;23.550;2023-11-19T10:48:49;97187.94;;;18.27;32.67
21361;BME280;10839;43.206;23.550;2023-11-19T10:51:19;97182.53;;;17.75;32.68
21361;BME280;10839;43.206;23.550;2023-11-19T10:53:49;97173.38;;;17.93;32.85
21361;BME280;10839;43.206;23.550;2023-11-19T10:56:20;97164.06;;;17.77;32.97
21361;BME280;10839;43.206;23.550;2023-11-19T10:58:51;97169.16;;;18.14;32.51
21361;BME280;10839;43.206;23.550;2023-11-19T11:01:23;97185.25;;;18.83;32.12
21361;BME280;10839;43.206;23.550;2023-11-19T11:03:52;97173.16;;;17.95;32.71
21361;BME280;10839;43.206;23.550;2023-11-19T11:06:19;97157.78;;;17.65;32.76
21361;BME280;10839;43.206;23.550;2023-11-19T11:08:46;97162.75;;;18.76;32.31
21361;BME280;10839;43.206;23.550;2023-11-19T11:11:15;97164.34;;;18.44;32.62
21361;BME280;10839;43.206;23.550;2023-11-19T11:13:44;97165.91;;;18.28;32.53
21361;BME280;10839;43.206;23.550;2023-11-19T11:16:11;97164.22;;;18.39;32.32
21361;BME280;10839;43.206;23.550;2023-11-19T11:18:38;97164.91;;;18.18;32.49
21361;BME280;10839;43.206;23.550;2023-11-19T11:21:09;97172.47;;;18.16;32.26
21361;BME280;10839;43.206;23.550;2023-11-19T11:32:18;97167.59;;;17.20;33.43
21361;BME280;10839;43.206;23.550;2023-11-19T11:37:47;97167.50;;;17.27;33.49
21361;BME280;10839;43.206;23.550;2023-11-19T11:40:15;97162.69;;;16.65;34.26
21361;BME280;10839;43.206;23.550;2023-11-19T11:42:46;97166.31;;;17.00;34.03
21361;BME280;10839;43.206;23.550;2023-11-19T11:45:13;97173.63;;;16.99;34.36
21361;BME280;10839;43.206;23.550;2023-11-19T11:50:11;97164.69;;;16.57;34.16
21361;BME280;10839;43.206;23.550;2023-11-19T11:55:28;97157.31;;;15.99;34.69
21361;BME280;10839;43.206;23.550;2023-11-19T11:57:55;97157.94;;;16.01;35.01
21361;BME280;10839;43.206;23.550;2023-11-19T12:00:27;97157.97;;;15.47;35.89
21361;BME280;10839;43.206;23.550;2023-11-19T12:03:02;97143.16;;;15.24;36.15
21361;BME280;10839;43.206;23.550;2023-11-19T12:05:29;97130.84;;;15.47;36.07
21361;BME280;10839;43.206;23.550;2023-11-19T12:07:57;97143.78;;;14.77;37.06
21361;BME280;10839;43.206;23.550;2023-11-19T12:10:29;97128.34;;;15.02;36.74
21361;BME280;10839;43.206;23.550;2023-11-19T12:13:01;97129.13;;;15.09;36.37
21361;BME280;10839;43.206;23.550;2023-11-19T12:15:27;97123.84;;;14.96;36.43
21361;BME280;10839;43.206;23.550;2023-11-19T12:17:54;97116.13;;;14.75;36.63
21361;BME280;10839;43.206;23.550;2023-11-19T12:20:22;97117.22;;;14.43;37.44
21361;BME280;10839;43.206;23.550;2023-11-19T12:22:48;97120.88;;;14.80;37.05
21361;BME280;10839;43.206;23.550;2023-11-19T12:25:16;97103.94;;;14.84;36.92
21361;BME280;10839;43.206;23.550;2023-11-19T12:27:44;97112.69;;;14.86;36.75
21361;BME280;10839;43.206;23.550;2023-11-19T12:30:10;97107.13;;;14.99;36.69
21361;BME280;10839;43.206;23.550;2023-11-19T12:32:45;97112.03;;;14.66;36.78
21361;BME280;10839;43.206;23.550;2023-11-19T12:35:12;97108.47;;;14.41;37.26
21361;BME280;10839;43.206;23.550;2023-11-19T12:37:48;97104.91;;;14.72;37.08
21361;BME280;10839;43.206;23.550;2023-11-19T12:40:21;97120.47;;;14.52;37.21
21361;BME280;10839;43.206;23.550;2023-11-19T12:42:54;97125.56;;;14.42;37.56
21361;BME280;10839;43.206;23.550;2023-11-19T12:45:21;97119.66;;;14.51;37.82
21361;BME280;10839;43.206;23.550;2023-11-19T12:47:49;97129.44;;;14.52;37.94
21361;BME280;10839;43.206;23.550;2023-11-19T12:50:18;97120.66;;;14.19;38.00
21361;BME280;10839;43.206;23.550;2023-11-19T12:52:57;97108.06;;;14.38;37.91
21361;BME280;10839;43.206;23.550;2023-11-19T12:55:30;97121.91;;;14.23;38.47
21361;BME280;10839;43.206;23.550;2023-11-19T12:57:58;97100.69;;;14.27;38.09
21361;BME280;10839;43.206;23.550;2023-11-19T13:00:26;97099.84;;;13.88;38.66
21361;BME280;10839;43.206;23.550;2023-11-19T13:02:54;97089.84;;;13.51;39.61
21361;BME280;10839;43.206;23.550;2023-11-19T13:07:47;97095.81;;;11.85;41.48
21361;BME280;10839;43.206;23.550;2023-11-19T13:10:12;97099.44;;;10.77;44.17
21361;BME280;10839;43.206;23.550;2023-11-19T13:12:39;97090.00;;;10.60;45.36